Terminal Aerodrome Forecast
Issued by NWS Sterling, VA

Home | Current Version | Previous Version | Text Only | Print | Product List | Glossary On
Versions: 1 2 3 4 5 6 7 8 9 10 11 12 13 14
315
FTUS41 KLWX 171141
TAFMRB
TAF
KMRB 171141Z 1712/1812 VRB03KT P6SM SCT200
     FM172000 VRB04KT P6SM BKN100
     FM180200 00000KT P6SM OVC050=

USA.gov is the U.S. government's official web portal to all federal, state and local government web resources and services.